aviador You're here:

KQD3 Decoded Metar

in
Report Time2017-08-16 18:58:00
UTC Time2017-08-16 19:27:45
Flight Rules vfr VFR
WindCalm
Visibility9000 m
Phenomena:Haze
Clouds:N/A
Expected CloudBase > 5,200 ft AGL from Temp-Dew spread
CeilingNone
Temp34°C
Dew Point21°C (47% RH)
Heat Index37.4°C
QNH1006 hPa
Raw Report
METAR KQD3 161858Z 00000KT 9000 HZ CLR 34/21 A2972 RMK SLP029 WND DATA
ESTMD T03420207=

Extra information for KQD3:More info

Social comments